NUE weather

Nuremberg Airport
Nuremberg, Bavaria, Germany

Public forecast

Using degrees Celsius for public forecast. Weather courtesy of forecast.io.

Current aviation weather report (METAR) for Nuremberg Airport

Retrieved 2019/10/20 02:20 UTC (35 minutes ago):

EDDN 200220Z 13003KT 090V160 CAVOK 10/10 Q1010 NOSIG

Aviation forecast (TAF) for Nuremberg Airport

Retrieved 2019-10-20 00:27 UTC (2 hours ago):

TAF EDDN 192300Z 2000/2024 VRB02KT CAVOK BECMG 2008/2010 12007KT